Airfield :
LOGIN :

Register | Disclaimer

   EN    FR    IT 

 










Legend :    VFR   Marginal VFR   IFR   Intensive IFR   Very Intensive IFR
Visi :
Ceiling :
>= 8 km
>= 3000ft
5 to 8 km
1000 to 3000 ft
1500m to 5 km
500 to 1000 ft
800 to 1500m
200 to 500 ft
< 800m
< 200 ft
Symbols :   Thunderstorms  Fog  Heavy snow  Heavy precipitations  Wind > 20 kt
SIGMETs :     Misc.  Thunderstorms  Icing  Turbulence  Mountain Waves  Volcanic Ashes







- Airport Elevation : 681 ft
- IATA code : OSL


ENGM - Oslo Gardermoen

CURRENT METAR :
  • 210820Z 09003KT 030V140 9999 -SN FEW008 SCT017 BKN020 M02/M03 Q1015 TEMPO BKN012

EXPIRED METARs :
  • 210750Z 10004KT 050V160 5000 -SN BR FEW006 BKN027 M02/M03 Q1015 TEMPO BKN012
  • 210720Z 09004KT 060V120 3100 -SN BR SCT007 BKN022 OVC037 M02/M03 Q1014 TEMPO BKN008
  • 210650Z 10005KT 070V140 2100 -SN BR SCT007 BKN013 M02/M02 Q1014 TEMPO BKN008
  • 210620Z VRB03KT 3500 -SN BR SCT005 BKN013 M01/M02 Q1013 TEMPO 2500 -SN BR BKN008
  • 210550Z VRB03KT 3700 -SN BR FEW004 SCT014 BKN020 M01/M01 Q1013 TEMPO 5000 -SN BR BKN014
  • 210520Z 06003KT 040V100 3300 SN BR VV005 M01/M01 Q1013 TEMPO 2500 -SN BR

COR TAF ENGM
Valid from the 21 at 06:00 until the 22 at 06:00 UTC


2106/2206 08008KT 4000 -SN VV012
TEMPO 2106/2109 1400 -SN BR VV004
BECMG 2109/2111 9000 FEW012 BKN020
TEMPO 2109/2121 4000 -SN BKN012
No reported NOTAMs for that airfield.



MET'MAP, your aeronautical weather chart ! - Copyright ORBIFLY December 2007 - Disclaimer

ORBIFLY MET'MAP TEAM :

Programming & Development : Alexandra Zaïnal
Concept & Development : Baudouin d'Aumeries
Co-Development & Prog : Marc-Olivier Méhu
Technical & hardware support : Manuel Goepfert

Contact : metmap@orbifly.com




SOURCES & CREDITS :

   NOAA